Jasper, TX

1:48 AM CST on January 20, 2017 (GMT -0600)
North Jasper | | Change Station

Elev 308 ft 30.93 °N, 94.00 °W | Updated 22 minutes ago

Overcast
Overcast
59.6 °F
Feels Like 59.6 °F
N
0.0
Wind Variable Wind from SSE
Gusts 3.0 mph

Today
High -- | Low -- °F
--% Chance of Precip.
Yesterday
High -- | Low -- °F
Precip. -- in
Pressure 29.78 in
Visibility 5.0 miles
Clouds Mostly Cloudy 600 ft
Mostly Cloudy 1500 ft
Dew Point 53 °F
Humidity 79%
Rainfall 0.00 in
Snow Depth Not available.
7:13 AM 5:41 PM
Waning Gibbous, 46% visible
METAR KJAS 200735Z AUTO 00000KT 5SM BR BKN006 BKN015 15/15 A2978 RMK AO2 T01490147
Pressure 29.78 in
Visibility 5.0 miles
Clouds Mostly Cloudy 600 ft
Mostly Cloudy 1500 ft
Dew Point 53 °F
Humidity 79%
Rainfall 0.00 in
Snow Depth Not available.
7:13 AM 5:41 PM
Waning Gibbous, 46% visible
METAR KJAS 200735Z AUTO 00000KT 5SM BR BKN006 BKN015 15/15 A2978 RMK AO2 T01490147

Get Your Daily Forecast Email!

Thanks for signing up!

Be on the lookout for a verification email in your inbox.

You'll start receiving the daily forecast at 8 AM.

×

10-Day Weather Forecast

Almanac

Astronomy

Jan. 20, 2017 Rise Set
Actual Time
Civil Twilight
Nautical Twilight
Astronomical Twilight
Moon
Length of Visible Light
Length of Day
Tomorrow will be .
, % of the Moon is Illuminated

Today's Extremes

State Highs State Lows

Community

WunderPhotos

Upload Photos

1,962,540 photos uploaded!

WunderBlog® & News

Nearby

Air Quality

  Air Quality AQ Index Pollutant
Not available.

Snow Depth

Station Depth Elevation

Earthquake Activity

City Distance Mag. Time & Date
Minimum magnitude displayed is 2.5.

Coastal Water Temperatures

Place Temperature

Stations

Nearby Weather Stations

Station Location Temp. Windchill Dew Point Humidity Wind Precip. Elev Updated Type
                   

Watches & Warnings

There are currently no watches in effect.